sensor_id;sensor_type;location;lat;lon;timestamp;P1;durP1;ratioP1;P2;durP2;ratioP2
67514;SDS011;60646;55.802;37.032;2023-04-25T00:01:03;5.13;;;3.63;;
67514;SDS011;60646;55.802;37.032;2023-04-25T00:03:30;4.18;;;2.60;;
67514;SDS011;60646;55.802;37.032;2023-04-25T00:06:00;5.55;;;3.00;;
67514;SDS011;60646;55.802;37.032;2023-04-25T00:08:29;5.03;;;2.70;;
67514;SDS011;60646;55.802;37.032;2023-04-25T00:10:56;4.22;;;2.78;;
67514;SDS011;60646;55.802;37.032;2023-04-25T00:13:22;5.05;;;2.60;;
67514;SDS011;60646;55.802;37.032;2023-04-25T00:15:48;5.43;;;2.80;;
67514;SDS011;60646;55.802;37.032;2023-04-25T00:18:14;6.55;;;2.75;;
67514;SDS011;60646;55.802;37.032;2023-04-25T00:20:40;4.15;;;2.83;;
67514;SDS011;60646;55.802;37.032;2023-04-25T00:23:09;4.53;;;2.63;;
67514;SDS011;60646;55.802;37.032;2023-04-25T00:25:35;5.10;;;2.90;;
67514;SDS011;60646;55.802;37.032;2023-04-25T00:28:01;7.68;;;3.00;;
67514;SDS011;60646;55.802;37.032;2023-04-25T00:30:27;4.00;;;2.60;;
67514;SDS011;60646;55.802;37.032;2023-04-25T00:32:53;6.05;;;3.03;;
67514;SDS011;60646;55.802;37.032;2023-04-25T00:35:19;7.28;;;3.65;;
67514;SDS011;60646;55.802;37.032;2023-04-25T00:37:45;6.47;;;3.10;;
67514;SDS011;60646;55.802;37.032;2023-04-25T00:40:10;6.25;;;3.83;;
67514;SDS011;60646;55.802;37.032;2023-04-25T00:42:37;5.78;;;3.38;;
67514;SDS011;60646;55.802;37.032;2023-04-25T00:45:04;5.50;;;3.53;;
67514;SDS011;60646;55.802;37.032;2023-04-25T00:47:31;4.28;;;3.25;;
67514;SDS011;60646;55.802;37.032;2023-04-25T00:49:58;7.82;;;3.08;;
67514;SDS011;60646;55.802;37.032;2023-04-25T00:52:24;5.40;;;2.75;;
67514;SDS011;60646;55.802;37.032;2023-04-25T00:54:50;7.72;;;2.85;;
67514;SDS011;60646;55.802;37.032;2023-04-25T00:57:15;5.53;;;3.05;;
67514;SDS011;60646;55.802;37.032;2023-04-25T00:59:42;6.70;;;3.20;;
67514;SDS011;60646;55.802;37.032;2023-04-25T01:02:11;6.00;;;2.83;;
67514;SDS011;60646;55.802;37.032;2023-04-25T01:04:38;6.68;;;3.10;;
67514;SDS011;60646;55.802;37.032;2023-04-25T01:07:04;7.13;;;3.60;;
67514;SDS011;60646;55.802;37.032;2023-04-25T01:09:30;6.47;;;3.17;;
67514;SDS011;60646;55.802;37.032;2023-04-25T01:11:57;4.72;;;2.85;;
67514;SDS011;60646;55.802;37.032;2023-04-25T01:14:23;8.32;;;3.70;;
67514;SDS011;60646;55.802;37.032;2023-04-25T01:16:49;4.68;;;3.33;;
67514;SDS011;60646;55.802;37.032;2023-04-25T01:19:16;12.02;;;4.13;;
67514;SDS011;60646;55.802;37.032;2023-04-25T01:21:45;4.75;;;2.92;;
67514;SDS011;60646;55.802;37.032;2023-04-25T01:24:12;7.32;;;3.25;;
67514;SDS011;60646;55.802;37.032;2023-04-25T01:26:38;5.18;;;3.10;;
67514;SDS011;60646;55.802;37.032;2023-04-25T01:29:06;12.98;;;3.60;;
67514;SDS011;60646;55.802;37.032;2023-04-25T01:31:34;6.82;;;3.38;;
67514;SDS011;60646;55.802;37.032;2023-04-25T01:34:00;7.25;;;3.63;;
67514;SDS011;60646;55.802;37.032;2023-04-25T01:36:28;6.05;;;3.13;;
67514;SDS011;60646;55.802;37.032;2023-04-25T01:38:54;6.45;;;3.35;;
67514;SDS011;60646;55.802;37.032;2023-04-25T01:41:21;6.68;;;2.67;;
67514;SDS011;60646;55.802;37.032;2023-04-25T01:43:49;5.78;;;2.78;;
67514;SDS011;60646;55.802;37.032;2023-04-25T01:46:16;5.45;;;2.90;;
67514;SDS011;60646;55.802;37.032;2023-04-25T01:48:43;6.32;;;3.38;;
67514;SDS011;60646;55.802;37.032;2023-04-25T01:51:09;7.38;;;3.20;;
67514;SDS011;60646;55.802;37.032;2023-04-25T01:53:37;6.47;;;3.17;;
67514;SDS011;60646;55.802;37.032;2023-04-25T01:56:04;4.70;;;3.00;;
67514;SDS011;60646;55.802;37.032;2023-04-25T01:58:33;6.93;;;3.00;;
67514;SDS011;60646;55.802;37.032;2023-04-25T02:01:20;3.92;;;2.83;;
67514;SDS011;60646;55.802;37.032;2023-04-25T02:04:00;7.07;;;3.80;;
67514;SDS011;60646;55.802;37.032;2023-04-25T02:08:57;4.60;;;3.10;;
67514;SDS011;60646;55.802;37.032;2023-04-25T02:11:23;7.20;;;3.45;;
67514;SDS011;60646;55.802;37.032;2023-04-25T02:14:08;4.82;;;3.00;;
67514;SDS011;60646;55.802;37.032;2023-04-25T02:16:42;7.68;;;3.63;;
67514;SDS011;60646;55.802;37.032;2023-04-25T02:19:09;5.90;;;3.50;;
67514;SDS011;60646;55.802;37.032;2023-04-25T02:21:35;5.03;;;3.42;;
67514;SDS011;60646;55.802;37.032;2023-04-25T02:24:01;7.30;;;3.10;;
67514;SDS011;60646;55.802;37.032;2023-04-25T02:26:28;8.15;;;3.05;;
67514;SDS011;60646;55.802;37.032;2023-04-25T02:28:56;6.63;;;3.65;;
67514;SDS011;60646;55.802;37.032;2023-04-25T02:31:22;6.15;;;3.53;;
67514;SDS011;60646;55.802;37.032;2023-04-25T02:33:49;5.15;;;3.25;;
67514;SDS011;60646;55.802;37.032;2023-04-25T02:36:17;5.05;;;3.00;;
67514;SDS011;60646;55.802;37.032;2023-04-25T02:38:42;10.90;;;3.72;;
67514;SDS011;60646;55.802;37.032;2023-04-25T02:41:08;4.72;;;3.17;;
67514;SDS011;60646;55.802;37.032;2023-04-25T02:43:34;6.10;;;3.38;;
67514;SDS011;60646;55.802;37.032;2023-04-25T02:46:00;6.90;;;3.22;;
67514;SDS011;60646;55.802;37.032;2023-04-25T02:48:25;10.07;;;3.53;;
67514;SDS011;60646;55.802;37.032;2023-04-25T02:50:51;7.75;;;3.20;;
67514;SDS011;60646;55.802;37.032;2023-04-25T02:53:17;7.35;;;3.47;;
67514;SDS011;60646;55.802;37.032;2023-04-25T02:55:47;6.80;;;3.20;;
67514;SDS011;60646;55.802;37.032;2023-04-25T02:58:13;5.78;;;3.20;;
67514;SDS011;60646;55.802;37.032;2023-04-25T03:00:46;5.13;;;3.20;;
67514;SDS011;60646;55.802;37.032;2023-04-25T03:03:12;7.60;;;3.75;;
67514;SDS011;60646;55.802;37.032;2023-04-25T03:05:38;8.38;;;3.22;;
67514;SDS011;60646;55.802;37.032;2023-04-25T03:08:04;9.88;;;3.80;;
67514;SDS011;60646;55.802;37.032;2023-04-25T03:10:32;6.30;;;3.03;;
67514;SDS011;60646;55.802;37.032;2023-04-25T03:13:02;8.43;;;3.53;;
67514;SDS011;60646;55.802;37.032;2023-04-25T03:15:27;8.35;;;2.78;;
67514;SDS011;60646;55.802;37.032;2023-04-25T03:17:53;5.97;;;3.35;;
67514;SDS011;60646;55.802;37.032;2023-04-25T03:20:19;6.45;;;2.95;;
67514;SDS011;60646;55.802;37.032;2023-04-25T03:22:46;5.05;;;3.10;;
67514;SDS011;60646;55.802;37.032;2023-04-25T03:25:12;6.57;;;3.22;;
67514;SDS011;60646;55.802;37.032;2023-04-25T03:27:37;8.88;;;3.38;;
67514;SDS011;60646;55.802;37.032;2023-04-25T03:30:03;9.05;;;3.30;;
67514;SDS011;60646;55.802;37.032;2023-04-25T03:32:31;7.82;;;3.22;;
67514;SDS011;60646;55.802;37.032;2023-04-25T03:34:57;6.07;;;3.47;;
67514;SDS011;60646;55.802;37.032;2023-04-25T03:37:25;8.00;;;3.30;;
67514;SDS011;60646;55.802;37.032;2023-04-25T03:39:51;9.23;;;3.25;;
67514;SDS011;60646;55.802;37.032;2023-04-25T03:42:17;7.13;;;3.10;;
67514;SDS011;60646;55.802;37.032;2023-04-25T03:44:43;6.45;;;3.60;;
67514;SDS011;60646;55.802;37.032;2023-04-25T03:47:09;8.20;;;3.38;;
67514;SDS011;60646;55.802;37.032;2023-04-25T03:49:35;8.18;;;4.28;;
67514;SDS011;60646;55.802;37.032;2023-04-25T03:55:53;5.13;;;3.17;;
67514;SDS011;60646;55.802;37.032;2023-04-25T03:58:19;6.18;;;3.67;;
67514;SDS011;60646;55.802;37.032;2023-04-25T04:00:45;9.10;;;3.53;;
67514;SDS011;60646;55.802;37.032;2023-04-25T04:03:11;6.53;;;3.55;;
67514;SDS011;60646;55.802;37.032;2023-04-25T04:05:37;8.75;;;3.95;;
67514;SDS011;60646;55.802;37.032;2023-04-25T04:08:06;10.82;;;4.20;;
67514;SDS011;60646;55.802;37.032;2023-04-25T04:10:32;7.70;;;4.10;;
67514;SDS011;60646;55.802;37.032;2023-04-25T04:12:58;9.68;;;4.22;;
67514;SDS011;60646;55.802;37.032;2023-04-25T04:15:24;8.15;;;4.00;;
67514;SDS011;60646;55.802;37.032;2023-04-25T04:17:50;6.82;;;3.65;;
67514;SDS011;60646;55.802;37.032;2023-04-25T04:20:17;11.23;;;3.95;;
67514;SDS011;60646;55.802;37.032;2023-04-25T04:22:43;6.75;;;4.38;;
67514;SDS011;60646;55.802;37.032;2023-04-25T04:25:11;6.82;;;3.53;;
67514;SDS011;60646;55.802;37.032;2023-04-25T04:27:55;8.38;;;3.97;;
67514;SDS011;60646;55.802;37.032;2023-04-25T04:30:48;6.20;;;3.30;;
67514;SDS011;60646;55.802;37.032;2023-04-25T04:33:17;10.23;;;4.05;;
67514;SDS011;60646;55.802;37.032;2023-04-25T04:35:52;5.25;;;3.78;;
67514;SDS011;60646;55.802;37.032;2023-04-25T04:38:19;8.98;;;3.58;;
67514;SDS011;60646;55.802;37.032;2023-04-25T04:40:46;6.18;;;3.33;;
67514;SDS011;60646;55.802;37.032;2023-04-25T04:43:24;4.25;;;3.10;;
67514;SDS011;60646;55.802;37.032;2023-04-25T04:46:09;5.80;;;2.92;;
67514;SDS011;60646;55.802;37.032;2023-04-25T04:48:45;5.07;;;3.10;;
67514;SDS011;60646;55.802;37.032;2023-04-25T04:51:29;6.50;;;3.40;;
67514;SDS011;60646;55.802;37.032;2023-04-25T04:54:19;4.43;;;2.90;;
67514;SDS011;60646;55.802;37.032;2023-04-25T04:57:12;5.55;;;2.85;;
67514;SDS011;60646;55.802;37.032;2023-04-25T05:00:10;5.63;;;2.88;;
67514;SDS011;60646;55.802;37.032;2023-04-25T05:03:01;5.68;;;2.30;;
67514;SDS011;60646;55.802;37.032;2023-04-25T05:05:36;3.92;;;2.38;;
67514;SDS011;60646;55.802;37.032;2023-04-25T05:08:23;5.68;;;2.53;;
67514;SDS011;60646;55.802;37.032;2023-04-25T05:11:10;6.20;;;1.73;;
67514;SDS011;60646;55.802;37.032;2023-04-25T05:13:47;4.82;;;2.17;;
67514;SDS011;60646;55.802;37.032;2023-04-25T05:16:49;4.55;;;1.98;;
67514;SDS011;60646;55.802;37.032;2023-04-25T05:19:38;2.67;;;1.40;;
67514;SDS011;60646;55.802;37.032;2023-04-25T05:22:28;2.63;;;2.00;;
67514;SDS011;60646;55.802;37.032;2023-04-25T05:25:33;4.30;;;1.80;;
67514;SDS011;60646;55.802;37.032;2023-04-25T05:28:05;4.22;;;2.08;;
67514;SDS011;60646;55.802;37.032;2023-04-25T05:30:40;3.65;;;2.28;;
67514;SDS011;60646;55.802;37.032;2023-04-25T05:33:14;4.82;;;2.15;;
67514;SDS011;60646;55.802;37.032;2023-04-25T05:35:58;3.70;;;2.45;;
67514;SDS011;60646;55.802;37.032;2023-04-25T05:38:25;4.93;;;2.28;;
67514;SDS011;60646;55.802;37.032;2023-04-25T05:41:14;2.58;;;2.03;;
67514;SDS011;60646;55.802;37.032;2023-04-25T05:44:00;3.47;;;1.98;;
67514;SDS011;60646;55.802;37.032;2023-04-25T05:46:49;5.45;;;2.10;;
67514;SDS011;60646;55.802;37.032;2023-04-25T05:49:23;5.55;;;2.20;;
67514;SDS011;60646;55.802;37.032;2023-04-25T05:52:02;6.60;;;2.35;;
67514;SDS011;60646;55.802;37.032;2023-04-25T05:54:57;3.92;;;2.10;;
67514;SDS011;60646;55.802;37.032;2023-04-25T05:57:41;5.30;;;2.33;;
67514;SDS011;60646;55.802;37.032;2023-04-25T06:00:12;4.85;;;2.28;;
67514;SDS011;60646;55.802;37.032;2023-04-25T06:05:26;6.75;;;2.30;;
67514;SDS011;60646;55.802;37.032;2023-04-25T06:07:52;3.65;;;1.95;;
67514;SDS011;60646;55.802;37.032;2023-04-25T06:10:19;4.95;;;2.28;;
67514;SDS011;60646;55.802;37.032;2023-04-25T06:13:05;4.93;;;2.28;;
67514;SDS011;60646;55.802;37.032;2023-04-25T06:15:33;4.53;;;2.35;;
67514;SDS011;60646;55.802;37.032;2023-04-25T06:18:00;3.08;;;2.20;;
67514;SDS011;60646;55.802;37.032;2023-04-25T06:20:26;2.80;;;1.90;;
67514;SDS011;60646;55.802;37.032;2023-04-25T06:22:55;4.00;;;1.83;;
67514;SDS011;60646;55.802;37.032;2023-04-25T06:25:29;3.33;;;1.90;;
67514;SDS011;60646;55.802;37.032;2023-04-25T06:28:14;3.78;;;1.88;;
67514;SDS011;60646;55.802;37.032;2023-04-25T06:30:43;3.67;;;1.67;;
67514;SDS011;60646;55.802;37.032;2023-04-25T06:33:13;2.22;;;1.70;;
67514;SDS011;60646;55.802;37.032;2023-04-25T06:35:39;2.22;;;1.50;;
67514;SDS011;60646;55.802;37.032;2023-04-25T06:38:09;3.22;;;1.77;;
67514;SDS011;60646;55.802;37.032;2023-04-25T06:40:37;2.83;;;1.77;;
67514;SDS011;60646;55.802;37.032;2023-04-25T06:43:03;4.10;;;1.92;;
67514;SDS011;60646;55.802;37.032;2023-04-25T06:45:40;3.42;;;1.83;;
67514;SDS011;60646;55.802;37.032;2023-04-25T06:48:08;3.90;;;1.83;;
67514;SDS011;60646;55.802;37.032;2023-04-25T06:50:34;4.85;;;2.55;;
67514;SDS011;60646;55.802;37.032;2023-04-25T06:53:00;7.35;;;2.95;;
67514;SDS011;60646;55.802;37.032;2023-04-25T06:55:28;5.53;;;2.78;;
67514;SDS011;60646;55.802;37.032;2023-04-25T06:58:16;5.97;;;2.67;;
67514;SDS011;60646;55.802;37.032;2023-04-25T07:01:05;6.82;;;2.90;;
67514;SDS011;60646;55.802;37.032;2023-04-25T07:03:32;5.25;;;2.92;;
67514;SDS011;60646;55.802;37.032;2023-04-25T07:06:02;4.13;;;2.92;;
67514;SDS011;60646;55.802;37.032;2023-04-25T07:08:29;3.55;;;2.95;;
67514;SDS011;60646;55.802;37.032;2023-04-25T07:10:56;4.97;;;3.13;;
67514;SDS011;60646;55.802;37.032;2023-04-25T07:13:22;5.25;;;3.90;;
67514;SDS011;60646;55.802;37.032;2023-04-25T07:15:48;3.92;;;2.78;;
67514;SDS011;60646;55.802;37.032;2023-04-25T07:18:16;6.20;;;2.25;;
67514;SDS011;60646;55.802;37.032;2023-04-25T07:20:42;5.07;;;2.40;;
67514;SDS011;60646;55.802;37.032;2023-04-25T07:23:08;3.53;;;2.08;;
67514;SDS011;60646;55.802;37.032;2023-04-25T07:25:34;3.63;;;2.40;;
67514;SDS011;60646;55.802;37.032;2023-04-25T07:28:01;3.13;;;2.30;;
67514;SDS011;60646;55.802;37.032;2023-04-25T07:30:27;5.00;;;1.80;;
67514;SDS011;60646;55.802;37.032;2023-04-25T07:32:54;4.07;;;2.22;;
67514;SDS011;60646;55.802;37.032;2023-04-25T07:35:20;4.60;;;3.10;;
67514;SDS011;60646;55.802;37.032;2023-04-25T07:37:47;4.30;;;2.42;;
67514;SDS011;60646;55.802;37.032;2023-04-25T07:40:19;6.00;;;1.88;;
67514;SDS011;60646;55.802;37.032;2023-04-25T07:42:49;2.80;;;2.22;;
67514;SDS011;60646;55.802;37.032;2023-04-25T07:45:20;4.53;;;2.10;;
67514;SDS011;60646;55.802;37.032;2023-04-25T07:47:46;3.20;;;1.90;;
67514;SDS011;60646;55.802;37.032;2023-04-25T07:50:12;2.67;;;1.60;;
67514;SDS011;60646;55.802;37.032;2023-04-25T07:52:38;4.50;;;2.15;;
67514;SDS011;60646;55.802;37.032;2023-04-25T07:55:26;3.85;;;2.20;;
67514;SDS011;60646;55.802;37.032;2023-04-25T07:58:00;4.53;;;2.15;;
67514;SDS011;60646;55.802;37.032;2023-04-25T08:00:28;3.15;;;2.10;;
67514;SDS011;60646;55.802;37.032;2023-04-25T08:03:14;4.85;;;2.10;;
67514;SDS011;60646;55.802;37.032;2023-04-25T08:05:41;2.20;;;1.75;;
67514;SDS011;60646;55.802;37.032;2023-04-25T08:08:07;9.68;;;1.95;;
67514;SDS011;60646;55.802;37.032;2023-04-25T08:10:33;4.53;;;2.10;;
67514;SDS011;60646;55.802;37.032;2023-04-25T08:12:59;5.22;;;1.90;;
67514;SDS011;60646;55.802;37.032;2023-04-25T08:15:25;3.35;;;1.88;;
67514;SDS011;60646;55.802;37.032;2023-04-25T08:17:51;3.78;;;1.63;;
67514;SDS011;60646;55.802;37.032;2023-04-25T08:20:17;4.32;;;3.10;;
67514;SDS011;60646;55.802;37.032;2023-04-25T08:22:44;3.63;;;2.50;;
67514;SDS011;60646;55.802;37.032;2023-04-25T08:25:19;4.40;;;2.60;;
67514;SDS011;60646;55.802;37.032;2023-04-25T08:27:45;4.57;;;2.80;;
67514;SDS011;60646;55.802;37.032;2023-04-25T08:30:12;5.55;;;2.45;;
67514;SDS011;60646;55.802;37.032;2023-04-25T08:32:39;3.42;;;1.92;;
67514;SDS011;60646;55.802;37.032;2023-04-25T08:35:19;3.20;;;2.17;;
67514;SDS011;60646;55.802;37.032;2023-04-25T08:37:46;3.90;;;2.60;;
67514;SDS011;60646;55.802;37.032;2023-04-25T08:40:14;4.20;;;2.40;;
67514;SDS011;60646;55.802;37.032;2023-04-25T08:42:54;5.18;;;2.70;;
67514;SDS011;60646;55.802;37.032;2023-04-25T08:45:22;4.28;;;2.83;;
67514;SDS011;60646;55.802;37.032;2023-04-25T08:47:49;6.18;;;3.33;;
67514;SDS011;60646;55.802;37.032;2023-04-25T08:50:17;3.47;;;2.42;;
67514;SDS011;60646;55.802;37.032;2023-04-25T08:52:46;3.60;;;2.13;;
67514;SDS011;60646;55.802;37.032;2023-04-25T08:55:13;4.38;;;2.63;;
67514;SDS011;60646;55.802;37.032;2023-04-25T08:57:41;5.93;;;2.10;;
67514;SDS011;60646;55.802;37.032;2023-04-25T09:00:11;3.47;;;2.40;;
67514;SDS011;60646;55.802;37.032;2023-04-25T09:02:41;5.20;;;2.40;;
67514;SDS011;60646;55.802;37.032;2023-04-25T09:05:08;5.00;;;2.40;;
67514;SDS011;60646;55.802;37.032;2023-04-25T09:07:36;5.40;;;2.60;;
67514;SDS011;60646;55.802;37.032;2023-04-25T09:10:02;3.78;;;2.40;;
67514;SDS011;60646;55.802;37.032;2023-04-25T09:12:34;5.25;;;2.58;;
67514;SDS011;60646;55.802;37.032;2023-04-25T09:15:05;3.65;;;2.55;;
67514;SDS011;60646;55.802;37.032;2023-04-25T09:17:55;5.13;;;2.90;;
67514;SDS011;60646;55.802;37.032;2023-04-25T09:20:22;4.00;;;2.17;;
67514;SDS011;60646;55.802;37.032;2023-04-25T09:23:00;4.97;;;2.63;;
67514;SDS011;60646;55.802;37.032;2023-04-25T09:25:28;6.80;;;3.22;;
67514;SDS011;60646;55.802;37.032;2023-04-25T09:28:03;6.47;;;2.63;;
67514;SDS011;60646;55.802;37.032;2023-04-25T09:30:34;4.28;;;2.35;;
67514;SDS011;60646;55.802;37.032;2023-04-25T09:33:20;3.92;;;2.92;;
67514;SDS011;60646;55.802;37.032;2023-04-25T09:35:48;5.40;;;2.70;;
67514;SDS011;60646;55.802;37.032;2023-04-25T09:41:13;5.18;;;2.38;;
67514;SDS011;60646;55.802;37.032;2023-04-25T09:43:49;8.27;;;2.47;;
67514;SDS011;60646;55.802;37.032;2023-04-25T09:46:16;3.78;;;2.40;;
67514;SDS011;60646;55.802;37.032;2023-04-25T09:48:49;3.72;;;2.50;;
67514;SDS011;60646;55.802;37.032;2023-04-25T09:51:21;5.63;;;2.78;;
67514;SDS011;60646;55.802;37.032;2023-04-25T09:53:51;3.83;;;2.35;;
67514;SDS011;60646;55.802;37.032;2023-04-25T09:56:26;3.72;;;2.60;;
67514;SDS011;60646;55.802;37.032;2023-04-25T09:58:55;9.43;;;2.30;;
67514;SDS011;60646;55.802;37.032;2023-04-25T10:01:21;4.35;;;2.65;;
67514;SDS011;60646;55.802;37.032;2023-04-25T10:04:04;5.20;;;2.60;;
67514;SDS011;60646;55.802;37.032;2023-04-25T10:06:54;5.05;;;2.47;;
67514;SDS011;60646;55.802;37.032;2023-04-25T10:09:22;5.60;;;2.63;;
67514;SDS011;60646;55.802;37.032;2023-04-25T10:11:51;5.95;;;2.65;;
67514;SDS011;60646;55.802;37.032;2023-04-25T10:14:18;4.03;;;2.22;;
67514;SDS011;60646;55.802;37.032;2023-04-25T10:16:45;3.35;;;2.30;;
67514;SDS011;60646;55.802;37.032;2023-04-25T10:19:11;2.88;;;2.03;;
67514;SDS011;60646;55.802;37.032;2023-04-25T10:21:40;2.58;;;1.83;;
67514;SDS011;60646;55.802;37.032;2023-04-25T10:24:14;5.57;;;2.10;;
67514;SDS011;60646;55.802;37.032;2023-04-25T10:26:40;5.15;;;2.30;;
67514;SDS011;60646;55.802;37.032;2023-04-25T10:29:09;2.55;;;2.10;;
67514;SDS011;60646;55.802;37.032;2023-04-25T10:31:44;2.67;;;2.15;;
67514;SDS011;60646;55.802;37.032;2023-04-25T10:34:12;2.85;;;2.08;;
67514;SDS011;60646;55.802;37.032;2023-04-25T10:36:37;4.18;;;2.00;;
67514;SDS011;60646;55.802;37.032;2023-04-25T10:39:04;2.75;;;1.92;;
67514;SDS011;60646;55.802;37.032;2023-04-25T10:44:18;4.63;;;1.50;;
67514;SDS011;60646;55.802;37.032;2023-04-25T10:46:44;2.10;;;1.60;;
67514;SDS011;60646;55.802;37.032;2023-04-25T10:49:15;3.55;;;1.80;;
67514;SDS011;60646;55.802;37.032;2023-04-25T10:52:11;2.33;;;1.60;;
67514;SDS011;60646;55.802;37.032;2023-04-25T10:54:54;3.03;;;2.03;;
67514;SDS011;60646;55.802;37.032;2023-04-25T10:57:31;2.22;;;1.70;;
67514;SDS011;60646;55.802;37.032;2023-04-25T11:00:09;2.92;;;1.40;;
67514;SDS011;60646;55.802;37.032;2023-04-25T11:02:45;8.60;;;1.83;;
67514;SDS011;60646;55.802;37.032;2023-04-25T11:05:45;4.43;;;1.77;;
67514;SDS011;60646;55.802;37.032;2023-04-25T11:08:09;3.03;;;1.70;;
67514;SDS011;60646;55.802;37.032;2023-04-25T11:10:37;2.45;;;1.80;;
67514;SDS011;60646;55.802;37.032;2023-04-25T11:13:06;2.80;;;1.45;;
67514;SDS011;60646;55.802;37.032;2023-04-25T11:15:32;3.63;;;1.83;;
67514;SDS011;60646;55.802;37.032;2023-04-25T11:17:58;2.28;;;1.40;;
67514;SDS011;60646;55.802;37.032;2023-04-25T11:20:25;4.28;;;1.70;;
67514;SDS011;60646;55.802;37.032;2023-04-25T11:22:53;3.05;;;1.90;;
67514;SDS011;60646;55.802;37.032;2023-04-25T11:25:22;3.55;;;1.92;;
67514;SDS011;60646;55.802;37.032;2023-04-25T11:27:51;3.55;;;1.73;;
67514;SDS011;60646;55.802;37.032;2023-04-25T11:30:19;4.93;;;1.75;;
67514;SDS011;60646;55.802;37.032;2023-04-25T11:32:46;3.08;;;1.83;;
67514;SDS011;60646;55.802;37.032;2023-04-25T11:35:12;2.88;;;1.90;;
67514;SDS011;60646;55.802;37.032;2023-04-25T11:37:39;2.95;;;1.90;;
67514;SDS011;60646;55.802;37.032;2023-04-25T11:40:06;3.55;;;1.83;;
67514;SDS011;60646;55.802;37.032;2023-04-25T11:42:32;3.47;;;1.85;;
67514;SDS011;60646;55.802;37.032;2023-04-25T11:44:59;3.97;;;1.50;;
67514;SDS011;60646;55.802;37.032;2023-04-25T11:47:29;3.97;;;1.70;;
67514;SDS011;60646;55.802;37.032;2023-04-25T11:49:59;3.35;;;1.88;;
67514;SDS011;60646;55.802;37.032;2023-04-25T11:55:21;2.92;;;1.75;;
67514;SDS011;60646;55.802;37.032;2023-04-25T11:57:48;3.30;;;1.90;;
67514;SDS011;60646;55.802;37.032;2023-04-25T12:00:16;3.28;;;1.48;;
67514;SDS011;60646;55.802;37.032;2023-04-25T12:02:47;2.78;;;1.58;;
67514;SDS011;60646;55.802;37.032;2023-04-25T12:05:16;2.80;;;1.70;;
67514;SDS011;60646;55.802;37.032;2023-04-25T12:07:42;3.15;;;1.98;;
67514;SDS011;60646;55.802;37.032;2023-04-25T12:10:09;2.25;;;1.50;;
67514;SDS011;60646;55.802;37.032;2023-04-25T12:12:43;2.50;;;1.55;;
67514;SDS011;60646;55.802;37.032;2023-04-25T12:15:11;11.38;;;2.45;;
67514;SDS011;60646;55.802;37.032;2023-04-25T12:17:51;2.60;;;1.95;;
67514;SDS011;60646;55.802;37.032;2023-04-25T12:20:20;2.97;;;1.83;;
67514;SDS011;60646;55.802;37.032;2023-04-25T12:22:50;2.88;;;2.00;;
67514;SDS011;60646;55.802;37.032;2023-04-25T12:28:22;2.67;;;1.80;;
67514;SDS011;60646;55.802;37.032;2023-04-25T12:33:34;2.50;;;1.80;;
67514;SDS011;60646;55.802;37.032;2023-04-25T12:36:03;3.80;;;2.47;;
67514;SDS011;60646;55.802;37.032;2023-04-25T12:38:38;3.67;;;2.00;;
67514;SDS011;60646;55.802;37.032;2023-04-25T12:41:06;3.95;;;2.00;;
67514;SDS011;60646;55.802;37.032;2023-04-25T12:43:32;2.85;;;1.90;;
67514;SDS011;60646;55.802;37.032;2023-04-25T12:45:58;3.45;;;1.52;;
67514;SDS011;60646;55.802;37.032;2023-04-25T12:48:24;2.30;;;1.70;;
67514;SDS011;60646;55.802;37.032;2023-04-25T12:50:50;2.15;;;1.50;;
67514;SDS011;60646;55.802;37.032;2023-04-25T12:53:17;2.08;;;1.50;;
67514;SDS011;60646;55.802;37.032;2023-04-25T12:55:45;3.58;;;1.52;;
67514;SDS011;60646;55.802;37.032;2023-04-25T12:58:17;8.18;;;4.15;;
67514;SDS011;60646;55.802;37.032;2023-04-25T13:00:44;3.85;;;2.25;;
67514;SDS011;60646;55.802;37.032;2023-04-25T13:03:10;10.05;;;4.43;;
67514;SDS011;60646;55.802;37.032;2023-04-25T13:05:38;3.83;;;2.40;;
67514;SDS011;60646;55.802;37.032;2023-04-25T13:08:04;4.30;;;2.28;;
67514;SDS011;60646;55.802;37.032;2023-04-25T13:10:30;3.92;;;2.03;;
67514;SDS011;60646;55.802;37.032;2023-04-25T13:12:59;3.25;;;1.73;;
67514;SDS011;60646;55.802;37.032;2023-04-25T13:15:24;3.97;;;2.13;;
67514;SDS011;60646;55.802;37.032;2023-04-25T13:18:12;2.70;;;1.98;;
67514;SDS011;60646;55.802;37.032;2023-04-25T13:20:37;3.70;;;2.33;;
67514;SDS011;60646;55.802;37.032;2023-04-25T13:23:03;2.13;;;1.85;;
67514;SDS011;60646;55.802;37.032;2023-04-25T13:25:29;3.05;;;2.13;;
67514;SDS011;60646;55.802;37.032;2023-04-25T13:27:55;2.90;;;1.58;;
67514;SDS011;60646;55.802;37.032;2023-04-25T13:30:21;3.60;;;1.70;;
67514;SDS011;60646;55.802;37.032;2023-04-25T13:32:47;2.22;;;1.38;;
67514;SDS011;60646;55.802;37.032;2023-04-25T13:35:13;4.25;;;1.58;;
67514;SDS011;60646;55.802;37.032;2023-04-25T13:37:39;2.85;;;1.50;;
67514;SDS011;60646;55.802;37.032;2023-04-25T13:40:06;4.40;;;1.30;;
67514;SDS011;60646;55.802;37.032;2023-04-25T13:42:35;3.75;;;1.45;;
67514;SDS011;60646;55.802;37.032;2023-04-25T13:45:02;2.28;;;1.48;;
67514;SDS011;60646;55.802;37.032;2023-04-25T13:47:33;1.70;;;1.20;;
67514;SDS011;60646;55.802;37.032;2023-04-25T13:50:00;3.72;;;1.88;;
67514;SDS011;60646;55.802;37.032;2023-04-25T13:52:31;3.07;;;1.33;;
67514;SDS011;60646;55.802;37.032;2023-04-25T13:54:57;1.55;;;1.20;;
67514;SDS011;60646;55.802;37.032;2023-04-25T13:57:42;1.27;;;1.05;;
67514;SDS011;60646;55.802;37.032;2023-04-25T14:00:07;3.38;;;1.25;;
67514;SDS011;60646;55.802;37.032;2023-04-25T14:02:35;1.77;;;1.30;;
67514;SDS011;60646;55.802;37.032;2023-04-25T14:05:01;1.52;;;1.23;;
67514;SDS011;60646;55.802;37.032;2023-04-25T14:07:31;2.55;;;1.40;;
67514;SDS011;60646;55.802;37.032;2023-04-25T14:09:57;1.50;;;1.10;;
67514;SDS011;60646;55.802;37.032;2023-04-25T14:12:23;1.30;;;1.08;;
67514;SDS011;60646;55.802;37.032;2023-04-25T14:14:50;2.85;;;1.20;;
67514;SDS011;60646;55.802;37.032;2023-04-25T14:17:38;2.40;;;1.13;;
67514;SDS011;60646;55.802;37.032;2023-04-25T14:20:04;2.45;;;1.38;;
67514;SDS011;60646;55.802;37.032;2023-04-25T14:22:31;1.95;;;1.20;;
67514;SDS011;60646;55.802;37.032;2023-04-25T14:24:57;3.17;;;1.45;;
67514;SDS011;60646;55.802;37.032;2023-04-25T14:27:23;2.55;;;1.40;;
67514;SDS011;60646;55.802;37.032;2023-04-25T14:29:49;2.65;;;1.48;;
67514;SDS011;60646;55.802;37.032;2023-04-25T14:32:15;2.90;;;1.60;;
67514;SDS011;60646;55.802;37.032;2023-04-25T14:34:40;2.58;;;1.45;;
67514;SDS011;60646;55.802;37.032;2023-04-25T14:37:06;7.35;;;1.50;;
67514;SDS011;60646;55.802;37.032;2023-04-25T14:39:32;4.00;;;2.17;;
67514;SDS011;60646;55.802;37.032;2023-04-25T14:41:58;4.28;;;1.40;;
67514;SDS011;60646;55.802;37.032;2023-04-25T14:44:43;3.33;;;1.60;;
67514;SDS011;60646;55.802;37.032;2023-04-25T14:47:08;2.22;;;1.30;;
67514;SDS011;60646;55.802;37.032;2023-04-25T14:49:34;2.10;;;1.50;;
67514;SDS011;60646;55.802;37.032;2023-04-25T14:52:00;2.90;;;1.10;;
67514;SDS011;60646;55.802;37.032;2023-04-25T14:54:26;1.50;;;1.05;;
67514;SDS011;60646;55.802;37.032;2023-04-25T14:56:52;1.92;;;1.48;;
67514;SDS011;60646;55.802;37.032;2023-04-25T14:59:18;3.25;;;1.27;;
67514;SDS011;60646;55.802;37.032;2023-04-25T15:01:45;2.45;;;1.25;;
67514;SDS011;60646;55.802;37.032;2023-04-25T15:04:11;1.88;;;1.40;;
67514;SDS011;60646;55.802;37.032;2023-04-25T15:06:38;2.40;;;1.67;;
67514;SDS011;60646;55.802;37.032;2023-04-25T15:09:04;2.40;;;1.33;;
67514;SDS011;60646;55.802;37.032;2023-04-25T15:11:30;2.25;;;1.38;;
67514;SDS011;60646;55.802;37.032;2023-04-25T15:13:56;2.20;;;1.48;;